Time;durP1;ratioP1;P1;durP2;ratioP2;P2;SDS_P1;SDS_P2;PMS_P1;PMS_P2;Temp;Humidity;BMP_temperature;BMP_pressure;BME280_temperature;BME280_humidity;BME280_pressure;Samples;Min_cycle;Max_cycle;Signal;HPM_P1;HPM_P2
2022/06/18 00:02:47;;;;;;;2.80;2.40;;;;;;;22.70;43.28;99326.16;6949117;28;20229;-79
2022/06/18 00:06:10;;;;;;;3.80;2.40;;;;;;;22.68;43.05;99331.09;6948422;28;20242;-81
2022/06/18 00:09:33;;;;;;;2.43;2.23;;;;;;;22.53;43.37;99336.53;6947795;28;20565;-80
2022/06/18 00:16:36;;;;;;;3.00;2.17;;;;;;;22.34;44.02;99324.34;6951660;28;20203;-80
2022/06/18 00:19:58;;;;;;;2.30;1.90;;;;;;;22.48;43.43;99325.53;6953858;28;20208;-81
2022/06/18 00:23:20;;;;;;;2.30;2.10;;;;;;;22.26;43.67;99322.13;6956315;28;20241;-81
2022/06/18 00:26:42;;;;;;;2.70;2.40;;;;;;;22.10;43.64;99320.38;6957538;28;20246;-81
2022/06/18 00:30:07;;;;;;;2.30;2.10;;;;;;;22.40;43.37;99327.94;6955499;28;20360;-81
2022/06/18 00:33:29;;;;;;;2.43;2.20;;;;;;;22.53;42.41;99313.75;6955204;28;20225;-81
2022/06/18 00:36:51;;;;;;;2.37;2.07;;;;;;;22.29;43.33;99316.06;6958342;28;20212;-80
2022/06/18 00:40:16;;;;;;;2.27;2.07;;;;;;;22.38;43.34;99327.38;6960295;28;20234;-81
2022/06/18 00:43:41;;;;;;;2.50;2.30;;;;;;;22.05;43.79;99328.59;6959702;28;20730;-81
2022/06/18 00:47:14;;;;;;;3.37;2.10;;;;;;;21.92;44.27;99325.47;6966328;28;20258;-80
2022/06/18 00:50:38;;;;;;;2.03;1.83;;;;;;;22.19;43.46;99331.69;6966047;28;20257;-80
2022/06/18 00:54:05;;;;;;;2.60;2.40;;;;;;;22.27;43.13;99325.69;6966647;28;20292;-80
2022/06/18 00:57:31;;;;;;;1.93;1.80;;;;;;;21.83;44.17;99308.69;6967514;28;20718;-81
2022/06/18 01:00:52;;;;;;;3.27;2.20;;;;;;;21.85;44.46;99325.72;6967297;28;20229;-80
2022/06/18 01:04:24;;;;;;;2.63;2.43;;;;;;;21.73;45.01;99322.34;6965316;28;20203;-81
2022/06/18 01:07:48;;;;;;;2.93;2.10;;;;;;;21.99;44.02;99317.81;6964716;28;20222;-80
2022/06/18 01:11:19;;;;;;;2.70;2.50;;;;;;;21.85;44.60;99312.00;6966984;28;20223;-81
2022/06/18 01:14:42;;;;;;;2.10;2.00;;;;;;;22.02;43.72;99309.88;6966284;28;20261;-80
2022/06/18 01:18:05;;;;;;;2.23;2.10;;;;;;;22.03;43.61;99303.31;6991535;28;20210;-80
2022/06/18 01:21:38;;;;;;;3.20;2.20;;;;;;;21.77;44.08;99315.22;6995162;28;20224;-80
2022/06/18 01:25:01;;;;;;;2.80;2.20;;;;;;;21.11;45.53;99309.47;6993186;28;20246;-80
2022/06/18 01:28:22;;;;;;;4.17;2.37;;;;;;;21.17;45.46;99296.63;6991262;28;20212;-81
2022/06/18 01:31:46;;;;;;;3.53;2.10;;;;;;;21.61;43.92;99282.44;6993357;28;20222;-80
2022/06/18 01:35:09;;;;;;;3.07;2.13;;;;;;;21.66;44.23;99287.97;6980909;28;20554;-80
2022/06/18 01:38:30;;;;;;;3.10;2.10;;;;;;;21.57;44.06;99254.69;6987823;28;20291;-79
2022/06/18 01:41:59;;;;;;;3.50;2.40;;;;;;;21.91;43.72;99279.91;6994011;28;20313;-81
2022/06/18 01:45:28;;;;;;;2.80;1.93;;;;;;;21.86;43.80;99280.72;6991439;28;20239;-80
2022/06/18 01:48:50;;;;;;;2.23;2.13;;;;;;;21.71;43.99;99258.66;6976728;28;20278;-82
2022/06/18 01:52:14;;;;;;;2.40;2.20;;;;;;;21.50;44.25;99275.22;6975943;28;20902;-81
2022/06/18 01:55:38;;;;;;;2.77;2.40;;;;;;;21.17;45.05;99248.91;6976630;28;20271;-81
2022/06/18 01:59:05;;;;;;;2.33;2.13;;;;;;;21.02;45.70;99269.91;6975865;28;20217;-79
2022/06/18 02:02:27;;;;;;;2.80;2.33;;;;;;;21.23;45.51;99251.69;6976244;28;20229;-78
2022/06/18 02:05:48;;;;;;;2.37;2.23;;;;;;;21.06;46.22;99254.59;6975765;28;20226;-79
2022/06/18 02:09:14;;;;;;;2.73;2.10;;;;;;;21.33;44.98;99238.88;6975228;28;20211;-80
2022/06/18 02:12:38;;;;;;;2.50;2.30;;;;;;;21.13;45.71;99236.00;6976170;28;20247;-78
2022/06/18 02:16:03;;;;;;;2.73;2.10;;;;;;;20.59;47.20;99237.13;6975745;28;20199;-79
2022/06/18 02:19:25;;;;;;;2.47;2.27;;;;;;;21.05;46.30;99233.72;6975627;28;20304;-79
2022/06/18 02:22:50;;;;;;;4.37;2.40;;;;;;;21.10;46.19;99247.47;6975294;28;20315;-79
2022/06/18 02:26:12;;;;;;;2.20;2.07;;;;;;;21.53;44.58;99233.53;6974861;28;20289;-78
2022/06/18 02:29:33;;;;;;;4.20;2.53;;;;;;;21.48;44.80;99241.75;6976010;28;20259;-78
2022/06/18 02:32:59;;;;;;;3.43;2.47;;;;;;;20.74;47.05;99231.78;6980438;28;20579;-78
2022/06/18 02:36:23;;;;;;;3.07;2.37;;;;;;;20.52;47.69;99235.69;6974939;28;20209;-78
2022/06/18 02:39:55;;;;;;;2.77;2.57;;;;;;;20.49;47.44;99212.38;6973754;28;20201;-79
2022/06/18 02:43:18;;;;;;;2.47;2.33;;;;;;;20.33;48.66;99228.91;6974771;28;20282;-79
2022/06/18 02:46:40;;;;;;;2.40;2.20;;;;;;;20.83;46.97;99240.34;6974405;28;20811;-78
2022/06/18 02:50:08;;;;;;;2.90;2.30;;;;;;;20.81;46.26;99220.63;6974949;28;20222;-78
2022/06/18 02:53:31;;;;;;;2.37;2.17;;;;;;;20.63;47.78;99219.06;6974660;28;20234;-78
2022/06/18 02:56:53;;;;;;;3.50;2.60;;;;;;;20.61;46.96;99188.38;6975732;28;20216;-79
2022/06/18 03:00:15;;;;;;;2.80;2.33;;;;;;;21.05;46.32;99232.91;6975472;28;20291;-80
2022/06/18 03:03:40;;;;;;;2.63;2.43;;;;;;;20.60;47.50;99227.81;6975896;28;20204;-79
2022/06/18 03:07:03;;;;;;;3.90;2.50;;;;;;;20.18;49.38;99246.00;6976486;28;20313;-78
2022/06/18 03:14:04;;;;;;;2.70;2.50;;;;;;;19.74;50.15;99236.06;6976421;28;20183;-78
2022/06/18 03:17:26;;;;;;;3.10;2.80;;;;;;;20.20;49.28;99229.28;6984106;28;20189;-79
2022/06/18 03:20:57;;;;;;;2.83;2.63;;;;;;;20.14;49.18;99219.34;6987267;28;20291;-79
2022/06/18 03:24:20;;;;;;;2.27;2.17;;;;;;;20.13;49.26;99218.53;6976328;28;20276;-79
2022/06/18 03:27:42;;;;;;;3.13;2.80;;;;;;;20.04;49.43;99221.97;6975674;28;20312;-79
2022/06/18 03:31:03;;;;;;;3.27;2.50;;;;;;;19.85;50.00;99217.88;6975971;28;20359;-79
2022/06/18 03:34:25;;;;;;;3.43;2.60;;;;;;;20.32;49.03;99217.09;6976034;28;20259;-78
2022/06/18 03:37:46;;;;;;;4.17;2.70;;;;;;;20.35;48.96;99221.25;6974492;28;20682;-78
2022/06/18 03:41:10;;;;;;;3.53;2.67;;;;;;;20.39;49.22;99233.34;6975267;28;20266;-79
2022/06/18 03:44:31;;;;;;;3.10;2.40;;;;;;;20.42;48.93;99225.44;6975773;28;20299;-79
2022/06/18 03:47:53;;;;;;;3.00;2.70;;;;;;;20.19;48.73;99176.44;6975214;28;20273;-78
2022/06/18 03:51:15;;;;;;;2.50;2.40;;;;;;;20.20;49.41;99218.31;6975477;28;20229;-78
2022/06/18 03:54:37;;;;;;;2.60;2.40;;;;;;;20.42;49.05;99230.91;6981421;28;20205;-79
2022/06/18 03:58:00;;;;;;;3.73;2.50;;;;;;;20.67;48.43;99231.16;6980574;28;20600;-78
2022/06/18 04:01:24;;;;;;;2.93;2.73;;;;;;;20.68;48.71;99249.25;6980913;28;20260;-78
2022/06/18 04:04:46;;;;;;;3.50;2.60;;;;;;;20.60;48.37;99216.03;6981557;28;20207;-78
2022/06/18 04:08:07;;;;;;;3.10;2.60;;;;;;;20.68;48.37;99254.75;6980000;28;20734;-78
2022/06/18 04:11:29;;;;;;;4.10;2.90;;;;;;;20.37;48.75;99208.09;6980069;28;20223;-78
2022/06/18 04:14:52;;;;;;;3.27;2.63;;;;;;;20.73;48.50;99238.34;6980268;28;20194;-78
2022/06/18 04:18:15;;;;;;;5.13;2.80;;;;;;;20.60;48.86;99248.91;6979600;28;20689;-78
2022/06/18 04:21:37;;;;;;;2.90;2.70;;;;;;;20.83;48.30;99250.22;6980436;28;20597;-78
2022/06/18 04:24:59;;;;;;;3.67;2.73;;;;;;;20.83;48.19;99239.25;6979670;28;20291;-78
2022/06/18 04:28:20;;;;;;;2.80;2.60;;;;;;;21.19;47.81;99254.16;6979916;28;20253;-78
2022/06/18 04:31:44;;;;;;;2.73;2.50;;;;;;;21.30;47.59;99256.69;6979446;28;20235;-78
2022/06/18 04:35:07;;;;;;;4.00;2.53;;;;;;;21.53;47.30;99244.53;6980771;28;20218;-78
2022/06/18 04:38:28;;;;;;;2.87;2.67;;;;;;;21.43;46.91;99250.75;6981948;28;20206;-78
2022/06/18 04:41:50;;;;;;;3.53;2.90;;;;;;;21.42;47.03;99235.38;6980195;28;20229;-79
2022/06/18 04:45:12;;;;;;;2.70;2.50;;;;;;;21.48;47.36;99255.47;6978503;28;20220;-78
2022/06/18 04:48:35;;;;;;;2.77;2.50;;;;;;;21.91;45.49;99235.97;6978161;28;20673;-78
2022/06/18 04:51:56;;;;;;;6.10;2.70;;;;;;;22.55;44.85;99249.13;6976661;28;20218;-79
2022/06/18 04:55:18;;;;;;;6.40;3.17;;;;;;;22.94;44.01;99236.56;6977345;28;20197;-79
2022/06/18 04:58:40;;;;;;;5.23;2.30;;;;;;;23.17;44.10;99236.03;6977183;28;20217;-79
2022/06/18 05:02:04;;;;;;;3.53;2.67;;;;;;;23.14;44.54;99250.28;6977264;28;20232;-79
2022/06/18 05:05:28;;;;;;;3.33;2.53;;;;;;;23.29;44.46;99236.56;6978122;28;20721;-79
2022/06/18 05:08:49;;;;;;;2.93;2.63;;;;;;;23.63;43.90;99236.78;6977092;28;20210;-79
2022/06/18 05:12:12;;;;;;;3.30;2.70;;;;;;;23.95;41.51;99234.53;6977375;28;20234;-78
2022/06/18 05:15:35;;;;;;;2.63;2.27;;;;;;;24.13;42.29;99198.91;6978142;28;20214;-78
2022/06/18 05:18:57;;;;;;;3.00;2.50;;;;;;;24.45;42.57;99229.63;6987461;28;20195;-78
2022/06/18 05:22:20;;;;;;;4.63;2.90;;;;;;;24.81;41.29;99239.34;6951533;28;20366;-78
2022/06/18 05:25:42;;;;;;;5.27;2.70;;;;;;;25.05;40.44;99193.34;6950696;28;20231;-78
2022/06/18 05:29:03;;;;;;;2.90;2.63;;;;;;;25.80;39.42;99211.13;6951186;28;20215;-79
2022/06/18 05:32:25;;;;;;;3.07;2.40;;;;;;;25.92;39.48;99219.84;6951805;28;20234;-79
2022/06/18 05:35:47;;;;;;;2.93;2.73;;;;;;;25.92;39.96;99212.41;6951138;28;20230;-79
2022/06/18 05:39:15;;;;;;;2.70;2.50;;;;;;;26.17;38.71;99220.38;6951078;28;20207;-79
2022/06/18 05:42:37;;;;;;;3.47;2.60;;;;;;;26.62;38.69;99225.31;6918389;28;1106088;-79
2022/06/18 05:45:58;;;;;;;2.53;2.30;;;;;;;26.75;39.08;99205.19;6952146;28;20229;-79
2022/06/18 05:49:21;;;;;;;2.30;2.10;;;;;;;26.43;38.80;99210.59;6957513;28;20234;-80
2022/06/18 05:52:44;;;;;;;3.80;2.60;;;;;;;26.50;39.16;99207.50;6954353;28;20220;-79
2022/06/18 05:56:07;;;;;;;3.37;3.07;;;;;;;26.46;38.98;99178.78;6958632;28;20275;-79
2022/06/18 05:59:30;;;;;;;3.40;2.60;;;;;;;27.00;38.61;99215.88;6972191;28;20205;-79
2022/06/18 06:02:52;;;;;;;3.80;2.80;;;;;;;27.03;38.57;99206.97;6953512;28;20390;-79
2022/06/18 06:06:13;;;;;;;4.53;3.00;;;;;;;27.13;38.36;99214.28;6951278;28;20234;-79
2022/06/18 06:13:16;;;;;;;2.57;2.37;;;;;;;27.49;37.58;99198.72;6951661;28;20222;-79
2022/06/18 06:16:38;;;;;;;4.03;3.00;;;;;;;28.05;36.71;99204.81;6951494;28;20291;-79
2022/06/18 06:20:01;;;;;;;5.50;2.40;;;;;;;28.72;35.43;99196.41;6952692;28;20287;-80
2022/06/18 06:23:23;;;;;;;2.53;2.33;;;;;;;29.27;35.13;99197.03;6955011;28;20232;-79
2022/06/18 06:26:44;;;;;;;2.57;2.37;;;;;;;29.97;33.30;99186.78;6952419;28;20319;-80
2022/06/18 06:30:11;;;;;;;2.60;2.40;;;;;;;29.54;33.42;99183.00;6952085;28;20235;-80
2022/06/18 06:33:33;;;;;;;2.47;2.27;;;;;;;30.24;34.05;99195.72;6962642;28;20190;-80
2022/06/18 06:36:54;;;;;;;2.53;2.33;;;;;;;30.16;31.40;99182.63;6964449;28;20261;-80
2022/06/18 06:40:16;;;;;;;2.67;2.40;;;;;;;31.12;29.15;99185.97;6960500;28;20258;-80
2022/06/18 06:43:37;;;;;;;2.60;2.40;;;;;;;31.54;29.72;99174.78;6964763;28;20210;-80
2022/06/18 06:47:00;;;;;;;2.50;2.30;;;;;;;31.56;28.97;99149.34;6965063;28;20229;-80
2022/06/18 06:50:23;;;;;;;3.40;2.33;;;;;;;32.38;28.24;99181.13;6958954;28;20547;-80
2022/06/18 06:53:45;;;;;;;2.80;2.30;;;;;;;32.71;27.18;99170.06;6950545;28;20612;-80
2022/06/18 06:57:21;;;;;;;2.40;2.20;;;;;;;32.48;27.07;99182.75;6951419;28;20714;-80
2022/06/18 07:00:45;;;;;;;2.40;2.20;;;;;;;33.03;26.46;99180.50;6951499;28;20244;-80
2022/06/18 07:04:09;;;;;;;3.43;2.20;;;;;;;33.09;26.70;99174.38;6951690;28;20685;-80
2022/06/18 07:07:30;;;;;;;2.70;2.23;;;;;;;33.31;26.25;99187.19;6951933;28;20361;-80
2022/06/18 07:10:52;;;;;;;2.93;2.07;;;;;;;33.57;25.72;99185.75;6952132;28;20686;-80
2022/06/18 07:14:14;;;;;;;2.60;2.40;;;;;;;33.81;24.89;99177.41;6952241;28;20223;-80
2022/06/18 07:17:35;;;;;;;3.03;2.43;;;;;;;34.07;25.13;99183.47;6954673;28;20187;-80
2022/06/18 07:20:58;;;;;;;4.57;2.50;;;;;;;34.02;24.92;99175.31;6992620;28;20714;-80
2022/06/18 07:24:20;;;;;;;2.50;2.30;;;;;;;34.32;24.40;99178.72;6979320;28;20307;-80
2022/06/18 07:27:43;;;;;;;2.47;2.27;;;;;;;34.62;24.73;99175.31;6979518;28;20218;-80
2022/06/18 07:31:05;;;;;;;3.23;2.10;;;;;;;34.33;23.95;99167.19;6979804;28;20230;-80
2022/06/18 07:34:27;;;;;;;2.13;2.03;;;;;;;34.70;24.60;99156.69;6980263;28;20206;-80
2022/06/18 07:37:50;;;;;;;2.70;2.50;;;;;;;34.41;23.80;99157.00;6980061;28;20309;-80
2022/06/18 07:41:12;;;;;;;3.03;2.37;;;;;;;34.55;23.48;99138.66;6980130;28;20687;-80
2022/06/18 07:44:34;;;;;;;3.77;2.40;;;;;;;34.65;23.48;99107.34;6979957;28;20229;-81
2022/06/18 07:47:56;;;;;;;2.47;2.13;;;;;;;35.26;22.57;99145.19;6979326;28;20230;-81
2022/06/18 07:51:17;;;;;;;3.17;2.30;;;;;;;35.38;23.80;99142.31;6978560;28;20241;-81
2022/06/18 07:54:40;;;;;;;3.20;2.10;;;;;;;35.85;22.01;99129.16;6986090;28;20183;-81
2022/06/18 07:58:02;;;;;;;2.90;2.23;;;;;;;35.90;22.75;99120.47;6990374;28;20238;-80
2022/06/18 08:01:24;;;;;;;2.40;2.23;;;;;;;35.80;22.78;99123.84;6978428;28;20261;-81
2022/06/18 08:04:45;;;;;;;2.47;2.10;;;;;;;36.56;21.70;99146.53;6977457;28;20263;-81
2022/06/18 08:08:07;;;;;;;5.10;2.13;;;;;;;36.51;21.35;99131.97;6976440;28;20360;-81
2022/06/18 08:11:31;;;;;;;4.83;2.20;;;;;;;34.59;23.41;99141.56;6977953;28;20253;-80
2022/06/18 08:14:52;;;;;;;2.30;2.10;;;;;;;35.44;22.09;99134.47;6977811;28;20210;-79
2022/06/18 08:18:14;;;;;;;2.03;1.93;;;;;;;36.05;22.83;99135.66;6976615;28;20206;-79
2022/06/18 08:21:39;;;;;;;2.57;1.93;;;;;;;33.59;24.58;99135.03;6977559;28;20599;-79
2022/06/18 08:25:01;;;;;;;2.33;2.20;;;;;;;33.99;24.79;99106.06;6977686;28;20195;-79
2022/06/18 08:28:24;;;;;;;2.30;2.10;;;;;;;35.76;23.32;99128.56;6976391;28;20231;-79
2022/06/18 08:31:46;;;;;;;2.30;2.10;;;;;;;34.84;22.87;99117.94;6979060;28;20222;-79
2022/06/18 08:35:08;;;;;;;2.30;2.10;;;;;;;34.85;23.51;99122.38;6979544;28;20212;-80
2022/06/18 08:38:30;;;;;;;3.37;2.07;;;;;;;35.94;21.93;99117.75;6978031;28;20348;-79
2022/06/18 08:42:01;;;;;;;2.83;2.13;;;;;;;36.15;22.04;99115.47;6981679;28;20231;-80
2022/06/18 08:45:34;;;;;;;2.30;1.93;;;;;;;35.64;22.31;99119.38;6980141;28;20214;-80
2022/06/18 08:49:17;;;;;;;2.60;1.93;;;;;;;35.03;22.94;99124.50;6983986;28;20234;-80
2022/06/18 08:52:52;;;;;;;3.10;2.30;;;;;;;33.46;24.37;99111.00;6978744;28;20232;-80
2022/06/18 08:56:15;;;;;;;3.60;2.20;;;;;;;34.48;23.21;99096.44;6981340;28;20285;-80
2022/06/18 08:59:52;;;;;;;2.13;1.93;;;;;;;34.00;23.09;99107.69;6981298;28;20293;-80
2022/06/18 09:03:22;;;;;;;2.30;1.97;;;;;;;35.12;21.50;99094.31;6981803;28;20246;-80
2022/06/18 09:06:55;;;;;;;2.23;2.03;;;;;;;36.24;20.79;99097.25;6980691;28;20594;-80
2022/06/18 09:10:23;;;;;;;2.57;2.30;;;;;;;37.19;20.14;99100.13;6980252;28;20186;-79
2022/06/18 09:13:49;;;;;;;3.70;2.10;;;;;;;36.72;20.05;99091.13;6980017;28;20212;-80
2022/06/18 09:17:18;;;;;;;2.40;2.13;;;;;;;36.46;20.09;99084.50;6980556;28;20234;-80
2022/06/18 09:20:45;;;;;;;2.40;2.07;;;;;;;36.19;20.69;99096.75;6990712;28;20222;-79
2022/06/18 09:24:08;;;;;;;2.07;1.97;;;;;;;34.44;22.54;99097.50;6992160;28;20205;-80
2022/06/18 09:27:37;;;;;;;4.23;2.23;;;;;;;35.29;21.58;99087.56;6978335;28;20280;-80
2022/06/18 09:31:04;;;;;;;2.30;2.10;;;;;;;34.25;21.75;99039.28;6979003;28;20221;-80
2022/06/18 09:34:29;;;;;;;1.93;1.80;;;;;;;34.99;21.78;99087.16;6979553;28;20211;-80
2022/06/18 09:37:55;;;;;;;2.40;2.20;;;;;;;35.51;21.37;99085.00;6978973;28;20294;-80
2022/06/18 09:41:19;;;;;;;2.20;2.00;;;;;;;35.79;21.21;99073.69;6979683;28;20309;-80
2022/06/18 09:44:42;;;;;;;5.63;2.00;;;;;;;37.21;19.93;99064.03;6979086;28;20219;-80
2022/06/18 09:48:05;;;;;;;3.37;2.00;;;;;;;36.58;19.54;99068.31;6977737;28;20223;-80
2022/06/18 09:51:32;;;;;;;2.17;1.70;;;;;;;36.37;20.13;99061.44;6977423;28;20706;-80
2022/06/18 09:54:59;;;;;;;2.03;1.90;;;;;;;37.49;19.48;99055.28;6978813;28;20198;-80
2022/06/18 09:58:23;;;;;;;2.60;2.00;;;;;;;37.08;18.67;99062.56;6978926;28;20690;-80
2022/06/18 10:01:47;;;;;;;1.97;1.87;;;;;;;36.68;19.43;99052.91;6979068;28;20222;-80
2022/06/18 10:08:56;;;;;;;1.60;1.50;;;;;;;38.73;16.69;99051.16;6978313;28;20249;-80
2022/06/18 10:12:21;;;;;;;1.73;1.50;;;;;;;38.14;17.36;99042.69;6978061;28;20297;-80
2022/06/18 10:15:43;;;;;;;1.73;1.63;;;;;;;39.08;16.61;99049.56;6978919;28;20210;-80
2022/06/18 10:19:11;;;;;;;1.70;1.60;;;;;;;39.31;15.73;99049.44;6978156;28;20202;-80
2022/06/18 10:22:39;;;;;;;2.30;1.73;;;;;;;38.12;16.22;99054.34;6978452;28;20298;-80
2022/06/18 10:26:06;;;;;;;1.80;1.70;;;;;;;37.32;17.30;99034.06;6978468;28;20194;-80
2022/06/18 10:29:35;;;;;;;1.88;1.48;;;;;;;39.28;15.68;99031.28;6977841;28;20293;-80
2022/06/18 10:33:04;;;;;;;1.90;1.60;;;;;;;39.39;15.34;99018.06;6978187;28;20237;-80
2022/06/18 10:36:32;;;;;;;1.52;1.13;;;;;;;39.58;13.23;99019.81;6978364;28;20229;-80
2022/06/18 10:40:00;;;;;;;2.20;1.27;;;;;;;39.08;14.56;99024.19;6978140;28;20538;-80
2022/06/18 10:43:33;;;;;;;1.85;1.40;;;;;;;39.67;13.87;99017.50;6977624;28;20238;-80
2022/06/18 10:47:01;;;;;;;1.20;1.20;;;;;;;40.19;13.10;99017.88;6977468;28;20230;-80
2022/06/18 10:50:24;;;;;;;1.40;1.30;;;;;;;39.89;13.34;99000.31;6976953;28;20232;-80
2022/06/18 10:53:49;;;;;;;1.95;1.25;;;;;;;39.60;13.70;98998.47;6977088;28;20211;-80
2022/06/18 10:57:22;;;;;;;1.10;1.02;;;;;;;39.84;12.55;98997.06;6978296;28;20190;-80
2022/06/18 11:00:55;;;;;;;1.35;1.15;;;;;;;39.89;11.97;98979.72;6977756;28;20222;-80
2022/06/18 11:04:23;;;;;;;2.83;1.20;;;;;;;39.91;11.76;98977.34;6978091;28;20258;-80
2022/06/18 11:07:47;;;;;;;1.60;1.25;;;;;;;39.61;12.76;98985.97;6978248;28;20249;-80
2022/06/18 11:11:10;;;;;;;1.50;1.40;;;;;;;39.83;12.74;98965.19;6978568;28;20589;-80
2022/06/18 11:14:33;;;;;;;1.95;1.10;;;;;;;39.14;13.92;98987.97;6978961;28;20570;-80
2022/06/18 11:17:54;;;;;;;1.52;1.20;;;;;;;39.26;13.25;98945.34;6978421;28;20306;-80
2022/06/18 11:21:24;;;;;;;1.67;1.50;;;;;;;39.97;12.79;98967.28;6964727;28;20223;-80
2022/06/18 11:24:45;;;;;;;2.50;1.13;;;;;;;40.79;12.23;98975.75;6951181;28;20202;-80
2022/06/18 11:28:14;;;;;;;1.30;1.20;;;;;;;40.89;12.38;98967.28;6950535;28;20234;-80
2022/06/18 11:31:44;;;;;;;2.50;1.40;;;;;;;41.13;12.94;98968.56;6950221;28;20281;-80
2022/06/18 11:35:19;;;;;;;1.40;1.30;;;;;;;40.43;12.71;98974.00;6950831;28;20198;-80
2022/06/18 11:38:52;;;;;;;2.25;1.08;;;;;;;41.03;12.86;98958.84;6950934;28;20284;-80
2022/06/18 11:42:17;;;;;;;2.58;1.20;;;;;;;41.35;12.47;98956.03;6962508;28;20266;-80
2022/06/18 11:45:44;;;;;;;4.03;1.42;;;;;;;40.95;12.47;98948.72;6961568;28;20217;-80
2022/06/18 11:49:11;;;;;;;4.28;1.38;;;;;;;39.85;13.29;98939.38;6949939;28;20218;-80
2022/06/18 11:52:39;;;;;;;2.22;1.50;;;;;;;39.87;13.76;98943.44;6960626;28;20231;-80
2022/06/18 11:56:07;;;;;;;2.05;1.75;;;;;;;40.24;13.25;98934.72;6962959;28;20274;-81
2022/06/18 11:59:35;;;;;;;3.20;1.70;;;;;;;39.65;14.18;98933.16;6959184;28;20710;-80
2022/06/18 12:03:01;;;;;;;3.05;1.60;;;;;;;40.31;13.90;98910.13;6949759;28;20237;-80
2022/06/18 12:06:28;;;;;;;6.28;2.40;;;;;;;40.90;13.96;98900.22;6949703;28;20274;-80
2022/06/18 12:09:50;;;;;;;3.75;2.10;;;;;;;40.51;13.81;98921.91;6948445;28;20630;-80
2022/06/18 12:13:19;;;;;;;2.83;1.73;;;;;;;40.09;14.42;98894.28;6959619;28;20226;-80
2022/06/18 12:16:45;;;;;;;3.97;2.45;;;;;;;41.08;13.95;98893.34;6981421;28;20248;-80
2022/06/18 12:20:16;;;;;;;7.55;2.45;;;;;;;41.56;14.40;98905.88;6961165;28;20656;-80
2022/06/18 12:23:47;;;;;;;7.38;2.45;;;;;;;40.79;14.48;98896.56;6953241;28;20658;-80
2022/06/18 12:27:12;;;;;;;4.55;2.65;;;;;;;40.80;14.88;98873.53;6953867;28;20195;-80
2022/06/18 12:30:37;;;;;;;7.43;2.67;;;;;;;41.28;14.72;98888.91;6959296;28;20283;-80
2022/06/18 12:34:02;;;;;;;5.57;2.28;;;;;;;41.45;14.49;98867.47;6981104;28;20337;-80
2022/06/18 12:37:28;;;;;;;5.43;2.88;;;;;;;41.57;13.89;98878.38;6979632;28;20242;-80
2022/06/18 12:40:57;;;;;;;9.30;3.03;;;;;;;41.71;14.33;98856.47;6979542;28;20609;-80
2022/06/18 12:44:27;;;;;;;6.00;2.60;;;;;;;40.91;14.37;98873.53;6979928;28;20217;-80
2022/06/18 12:47:56;;;;;;;9.30;2.75;;;;;;;39.96;15.64;98861.94;6979288;28;20301;-80
2022/06/18 12:51:22;;;;;;;9.93;3.63;;;;;;;41.13;14.76;98839.19;6979086;28;20233;-80
2022/06/18 12:54:53;;;;;;;8.18;2.90;;;;;;;40.84;14.37;98846.03;6980934;28;20187;-80
2022/06/18 12:58:21;;;;;;;12.55;3.03;;;;;;;41.01;14.16;98828.28;6979308;28;20563;-80
2022/06/18 13:01:50;;;;;;;10.73;3.28;;;;;;;40.88;14.55;98837.53;6980628;28;20221;-80
2022/06/18 13:05:24;;;;;;;11.43;3.30;;;;;;;41.31;14.41;98839.97;6981605;28;20197;-80
2022/06/18 13:08:55;;;;;;;8.32;2.90;;;;;;;41.39;14.78;98826.63;6962322;28;20215;-81
2022/06/18 13:12:31;;;;;;;9.60;3.38;;;;;;;41.62;14.58;98819.28;6953740;28;20245;-80
2022/06/18 13:15:57;;;;;;;7.45;2.95;;;;;;;40.88;15.45;98809.25;6952603;28;20333;-80
2022/06/18 13:19:24;;;;;;;15.98;3.35;;;;;;;40.88;15.81;98795.13;6953906;28;20206;-80
2022/06/18 13:22:47;;;;;;;8.70;3.10;;;;;;;40.73;16.08;98807.66;6952799;28;20227;-80
2022/06/18 13:30:00;;;;;;;13.88;3.50;;;;;;;41.84;15.23;98791.72;6953344;28;20246;-80
2022/06/18 13:33:30;;;;;;;9.73;3.30;;;;;;;41.66;15.72;98785.28;6954413;28;20226;-81
2022/06/18 13:36:58;;;;;;;7.55;3.20;;;;;;;40.92;15.65;98793.09;6954494;28;20768;-81
2022/06/18 13:40:27;;;;;;;11.23;3.88;;;;;;;41.66;15.41;98788.13;6952764;28;20198;-81
2022/06/18 13:43:53;;;;;;;9.45;3.25;;;;;;;40.45;16.31;98768.03;6952913;28;20264;-80
2022/06/18 13:47:18;;;;;;;9.77;3.33;;;;;;;41.28;16.44;98772.84;6952901;28;20231;-80
2022/06/18 13:50:44;;;;;;;8.00;3.15;;;;;;;41.55;16.67;98767.53;6952362;28;20260;-80
2022/06/18 13:54:09;;;;;;;9.25;3.25;;;;;;;41.73;15.86;98735.06;6952986;28;20188;-80
2022/06/18 13:57:39;;;;;;;11.32;2.92;;;;;;;41.41;16.74;98731.59;6952605;28;20215;-80
2022/06/18 14:01:05;;;;;;;6.07;3.03;;;;;;;41.14;16.33;98758.72;6952809;28;20304;-81
2022/06/18 14:04:32;;;;;;;11.80;3.15;;;;;;;40.86;16.80;98730.47;6952051;28;20210;-80
2022/06/18 14:07:54;;;;;;;7.97;2.80;;;;;;;41.11;16.96;98741.75;6951016;28;20215;-80
2022/06/18 14:11:28;;;;;;;8.73;2.97;;;;;;;40.59;17.62;98739.78;6950415;28;20258;-80
2022/06/18 14:15:02;;;;;;;8.35;3.63;;;;;;;41.25;16.24;98739.69;6951709;28;20318;-80
2022/06/18 14:18:25;;;;;;;7.47;2.78;;;;;;;41.00;17.36;98724.00;6950392;28;20214;-80
2022/06/18 14:21:48;;;;;;;8.88;3.10;;;;;;;40.95;16.99;98694.09;6948249;28;20226;-81
2022/06/18 14:25:18;;;;;;;9.68;3.33;;;;;;;41.25;16.54;98721.91;6949577;28;20795;-81
2022/06/18 14:28:42;;;;;;;7.85;3.30;;;;;;;41.09;17.40;98711.03;6948512;28;20319;-81
2022/06/18 14:32:10;;;;;;;9.88;3.33;;;;;;;41.35;17.04;98710.56;6947834;28;20223;-80
2022/06/18 14:35:36;;;;;;;9.15;3.28;;;;;;;41.51;16.58;98701.59;6946790;28;20217;-80
2022/06/18 14:38:58;;;;;;;9.27;3.15;;;;;;;40.56;16.93;98690.50;6947141;28;20680;-80
2022/06/18 14:42:35;;;;;;;10.52;3.35;;;;;;;40.71;17.26;98691.28;6947774;28;20337;-81
2022/06/18 14:46:07;;;;;;;9.85;3.40;;;;;;;40.95;17.28;98688.44;6947720;28;20203;-80
2022/06/18 14:49:51;;;;;;;10.32;3.20;;;;;;;41.11;17.17;98693.66;6946680;28;20211;-79
2022/06/18 14:53:27;;;;;;;9.05;3.40;;;;;;;40.88;17.22;98682.78;6946424;28;20231;-80
2022/06/18 14:57:11;;;;;;;8.95;3.22;;;;;;;40.69;16.64;98680.41;6946929;28;20282;-80
2022/06/18 15:00:58;;;;;;;8.02;3.20;;;;;;;40.63;16.63;98678.38;6947318;28;20234;-81
2022/06/18 15:04:25;;;;;;;9.05;3.35;;;;;;;40.47;17.12;98678.78;6945624;28;20690;-81
2022/06/18 15:07:48;;;;;;;13.10;3.67;;;;;;;40.57;16.85;98663.88;6947168;28;20207;-81
2022/06/18 15:11:10;;;;;;;8.23;3.10;;;;;;;40.38;17.24;98644.44;6947637;28;20227;-81
2022/06/18 15:14:31;;;;;;;9.88;3.17;;;;;;;40.48;17.67;98663.44;6951059;28;20249;-82
2022/06/18 15:18:06;;;;;;;10.38;3.78;;;;;;;40.21;16.91;98665.09;6946426;28;20230;-81
2022/06/18 15:21:34;;;;;;;12.88;3.50;;;;;;;40.28;16.08;98648.13;6946802;28;20597;-81
2022/06/18 15:28:40;;;;;;;17.15;3.80;;;;;;;39.51;16.22;98639.53;6963326;28;20215;-82
2022/06/18 15:32:11;;;;;;;16.05;4.75;;;;;;;40.05;15.91;98636.38;6957476;28;20281;-81
2022/06/18 15:35:34;;;;;;;12.63;3.30;;;;;;;40.19;16.08;98627.13;6950128;28;20261;-80
2022/06/18 15:38:58;;;;;;;14.82;3.80;;;;;;;39.85;16.51;98625.88;6947614;28;20231;-80
2022/06/18 15:42:22;;;;;;;14.65;4.18;;;;;;;39.97;16.48;98612.16;6947816;28;20317;-80
2022/06/18 15:45:48;;;;;;;13.68;4.13;;;;;;;40.16;16.24;98620.28;6948850;28;20659;-80
2022/06/18 15:49:21;;;;;;;10.30;4.10;;;;;;;40.00;16.29;98543.56;6952860;28;20242;-80
2022/06/18 15:52:44;;;;;;;16.98;4.18;;;;;;;40.04;16.05;98612.19;6953157;28;20242;-80
2022/06/18 15:56:10;;;;;;;17.90;4.07;;;;;;;39.34;16.21;98605.59;6953576;28;20665;-79
2022/06/18 15:59:33;;;;;;;13.52;3.63;;;;;;;40.01;16.31;98601.66;6952569;28;20656;-80
2022/06/18 16:02:55;;;;;;;14.73;4.03;;;;;;;40.02;16.36;98589.16;6953301;28;20258;-79
2022/06/18 16:06:19;;;;;;;12.27;4.25;;;;;;;40.01;15.84;98559.28;6953189;28;20812;-79
2022/06/18 16:09:52;;;;;;;12.93;3.90;;;;;;;39.80;16.40;98598.84;6951522;28;20237;-80
2022/06/18 16:13:16;;;;;;;18.35;4.20;;;;;;;39.72;16.92;98597.22;6952678;28;20222;-80
2022/06/18 16:16:45;;;;;;;11.13;4.10;;;;;;;39.47;16.43;98578.59;6951890;28;20207;-80
2022/06/18 16:20:21;;;;;;;14.15;3.90;;;;;;;40.08;16.23;98583.91;6952034;28;20194;-80
2022/06/18 16:23:49;;;;;;;15.77;4.18;;;;;;;39.66;15.94;98569.78;6953109;28;20284;-80
2022/06/18 16:27:24;;;;;;;15.35;4.25;;;;;;;39.70;16.59;98581.84;6953033;28;20234;-80